createdAt,value
2019-02-19T04:54:20.740Z,-1.51
2019-02-19T04:56:51.314Z,-1.57
2019-02-19T04:59:21.732Z,-1.55
2019-02-19T05:01:52.141Z,-1.44
2019-02-19T05:04:23.175Z,-1.31
2019-02-19T05:06:53.588Z,-1.12
2019-02-19T05:09:23.992Z,-0.93
2019-02-19T05:11:54.385Z,-0.73
2019-02-19T05:14:24.783Z,-0.57
2019-02-19T05:16:55.197Z,-0.41
2019-02-19T05:19:25.670Z,-0.27
2019-02-19T05:21:56.072Z,-0.16
2019-02-19T05:24:28.198Z,-0.07
2019-02-19T05:26:58.633Z,0.01
2019-02-19T05:29:32.270Z,0.10
2019-02-19T05:32:03.023Z,0.24
2019-02-19T05:34:33.486Z,0.35
2019-02-19T05:37:04.336Z,0.44
2019-02-19T05:39:34.897Z,0.53
2019-02-19T05:42:05.399Z,0.63
2019-02-19T05:44:35.821Z,0.72
2019-02-19T05:47:06.255Z,0.79
2019-02-19T05:49:36.695Z,0.87
2019-02-19T05:52:07.137Z,0.95
2019-02-19T05:54:37.639Z,1.01
2019-02-19T05:57:08.071Z,1.01
2019-02-19T05:59:38.498Z,1.07
2019-02-19T06:02:09.034Z,1.14
2019-02-19T06:04:39.562Z,1.18
2019-02-19T06:07:10.601Z,1.23
2019-02-19T06:09:40.999Z,1.29
2019-02-19T06:12:11.402Z,1.34
2019-02-19T06:14:42.144Z,1.38
2019-02-19T06:17:12.542Z,1.48
2019-02-19T06:19:42.944Z,1.56
2019-02-19T06:22:13.350Z,1.65
2019-02-19T06:24:43.755Z,1.70
2019-02-19T06:27:14.225Z,1.77
2019-02-19T06:29:44.631Z,1.82
2019-02-19T06:32:15.031Z,1.90
2019-02-19T06:34:45.510Z,1.96
2019-02-19T06:37:16.000Z,2.06
2019-02-19T06:39:46.408Z,2.14
2019-02-19T06:42:16.895Z,2.20
2019-02-19T06:44:47.304Z,2.28
2019-02-19T06:47:19.416Z,2.37
2019-02-19T06:49:49.899Z,2.47
2019-02-19T06:52:20.287Z,2.56
2019-02-19T06:54:50.794Z,2.71
2019-02-19T06:57:21.212Z,2.81
2019-02-19T06:59:52.728Z,2.89
2019-02-19T07:02:30.902Z,3.06
2019-02-19T07:05:01.920Z,3.18
2019-02-19T07:07:32.453Z,3.31
2019-02-19T07:10:02.922Z,3.43
2019-02-19T07:12:33.508Z,3.53
2019-02-19T07:15:04.555Z,3.64
2019-02-19T07:17:36.416Z,3.78
2019-02-19T07:20:09.195Z,3.86
2019-02-19T07:22:39.722Z,4.02
2019-02-19T07:25:12.220Z,4.19
2019-02-19T07:27:42.737Z,4.26
2019-02-19T07:30:13.322Z,4.29
2019-02-19T07:32:43.899Z,4.44
2019-02-19T07:35:14.293Z,4.54
2019-02-19T07:37:44.751Z,4.63
2019-02-19T07:40:15.159Z,4.74
2019-02-19T07:42:45.709Z,4.81
2019-02-19T07:45:16.143Z,4.91
2019-02-19T07:47:46.681Z,4.99
2019-02-19T07:50:17.827Z,5.04
2019-02-19T07:52:48.241Z,5.11
2019-02-19T07:55:18.671Z,5.21
2019-02-19T07:57:49.067Z,5.37
2019-02-19T08:00:19.469Z,5.50
2019-02-19T08:02:49.956Z,5.63
2019-02-19T08:05:20.485Z,5.74
2019-02-19T08:07:50.920Z,5.88
2019-02-19T08:10:21.448Z,6.03
2019-02-19T08:12:51.977Z,6.13
2019-02-19T08:15:22.367Z,6.30
2019-02-19T08:17:52.831Z,6.46
2019-02-19T08:20:23.226Z,6.59
2019-02-19T08:22:53.685Z,6.71
2019-02-19T08:25:24.116Z,6.87
2019-02-19T08:27:54.643Z,7.00
2019-02-19T08:30:25.058Z,7.16
2019-02-19T08:32:56.623Z,7.26
2019-02-19T08:35:27.058Z,7.37
2019-02-19T08:37:57.478Z,7.56
2019-02-19T08:40:27.911Z,7.72
2019-02-19T08:43:00.241Z,7.86
2019-02-19T08:45:35.895Z,7.92
2019-02-19T08:48:06.308Z,8.03
2019-02-19T08:50:36.698Z,8.17
2019-02-19T08:53:07.116Z,8.30
2019-02-19T08:55:37.573Z,8.36
2019-02-19T08:58:08.126Z,8.46
2019-02-19T09:00:38.650Z,8.51
2019-02-19T09:03:09.087Z,8.71
2019-02-19T09:05:39.520Z,8.77
2019-02-19T09:08:09.989Z,8.86
2019-02-19T09:10:40.786Z,8.94
2019-02-19T09:13:11.515Z,9.11
2019-02-19T09:15:41.923Z,9.22
2019-02-19T09:18:12.479Z,9.20
2019-02-19T09:20:42.942Z,9.39
2019-02-19T09:23:13.334Z,9.50
2019-02-19T09:25:43.767Z,9.61
2019-02-19T09:28:14.163Z,9.64
2019-02-19T09:30:44.672Z,9.74
2019-02-19T09:33:15.076Z,9.83
2019-02-19T09:35:45.581Z,9.84
2019-02-19T09:38:17.131Z,9.97
2019-02-19T09:40:47.596Z,9.94
2019-02-19T09:43:17.997Z,10.09
2019-02-19T09:45:48.525Z,10.19
2019-02-19T09:48:18.918Z,10.33
2019-02-19T09:50:49.314Z,10.43
2019-02-19T09:53:19.799Z,10.36
2019-02-19T09:55:50.209Z,10.41
2019-02-19T09:58:20.760Z,10.42
2019-02-19T10:00:51.192Z,10.44
2019-02-19T10:03:21.672Z,10.50
2019-02-19T10:05:52.144Z,10.54
2019-02-19T10:08:22.575Z,10.44
2019-02-19T10:10:53.008Z,10.54
2019-02-19T10:13:25.130Z,10.57
2019-02-19T10:15:55.642Z,10.44
2019-02-19T10:18:26.042Z,10.50
2019-02-19T10:20:56.577Z,10.81
2019-02-19T10:23:27.296Z,10.91
2019-02-19T10:25:57.733Z,11.02
2019-02-19T10:28:28.159Z,11.09
2019-02-19T10:31:53.473Z,11.28
2019-02-19T10:34:41.710Z,11.49
2019-02-19T10:37:12.109Z,11.60
2019-02-19T10:39:42.572Z,11.73
2019-02-19T10:42:13.994Z,11.88
2019-02-19T10:44:44.430Z,11.89
2019-02-19T10:47:14.842Z,12.09
2019-02-19T10:49:45.317Z,12.11
2019-02-19T10:52:15.706Z,12.22
2019-02-19T10:54:46.371Z,12.18
2019-02-19T10:57:16.782Z,12.34
2019-02-19T10:59:47.322Z,12.47
2019-02-19T11:02:17.755Z,12.52
2019-02-19T11:04:48.158Z,12.43
2019-02-19T11:07:18.636Z,12.52
2019-02-19T11:09:49.139Z,12.69
2019-02-19T11:12:19.539Z,12.73
2019-02-19T11:14:51.235Z,12.76
2019-02-19T11:17:21.763Z,12.85
2019-02-19T11:19:52.231Z,12.80
2019-02-19T11:22:22.645Z,12.85
2019-02-19T11:24:53.152Z,12.75
2019-02-19T11:27:23.582Z,12.84
2019-02-19T11:29:54.001Z,12.87
2019-02-19T11:32:26.285Z,12.69
2019-02-19T11:34:58.013Z,12.54
2019-02-19T11:37:28.417Z,12.65
2019-02-19T11:39:58.814Z,12.70
2019-02-19T11:42:29.210Z,12.68
2019-02-19T11:44:59.622Z,12.67
2019-02-19T11:47:30.049Z,12.82
2019-02-19T11:50:01.588Z,12.59
2019-02-19T11:52:31.989Z,12.57
2019-02-19T11:55:02.393Z,12.53
2019-02-19T11:57:32.936Z,12.65
2019-02-19T12:00:03.831Z,12.59
2019-02-19T12:02:34.310Z,12.52
2019-02-19T12:05:07.008Z,12.72
2019-02-19T12:07:37.598Z,12.70
2019-02-19T12:10:09.264Z,12.64
2019-02-19T12:12:39.886Z,12.59
2019-02-19T12:15:13.671Z,12.74
2019-02-19T12:17:44.067Z,12.85
2019-02-19T12:20:16.492Z,12.89
2019-02-19T12:22:46.927Z,12.86
2019-02-19T12:25:17.335Z,12.70
2019-02-19T12:27:47.864Z,12.83
2019-02-19T12:30:21.583Z,12.65
2019-02-19T12:32:52.104Z,12.61
2019-02-19T12:35:22.567Z,12.75
2019-02-19T12:37:52.975Z,12.94
2019-02-19T12:40:23.446Z,13.04
2019-02-19T12:42:54.022Z,13.05
2019-02-19T12:45:24.416Z,12.84
2019-02-19T12:47:54.816Z,12.92
2019-02-19T12:50:25.222Z,13.05
2019-02-19T12:52:55.736Z,13.12
2019-02-19T12:55:26.462Z,12.83
2019-02-19T12:57:57.123Z,12.53
2019-02-19T13:00:27.591Z,12.37
2019-02-19T13:02:58.060Z,12.33
2019-02-19T13:05:28.588Z,12.26
2019-02-19T13:07:59.116Z,12.43
2019-02-19T13:10:29.666Z,12.56
2019-02-19T13:13:00.297Z,12.75
2019-02-19T13:15:30.820Z,12.87
2019-02-19T13:18:01.237Z,13.02
2019-02-19T13:20:31.674Z,12.81
2019-02-19T13:23:02.415Z,12.80
2019-02-19T13:25:32.879Z,12.83
2019-02-19T13:28:04.492Z,12.59
2019-02-19T13:30:34.883Z,12.59
2019-02-19T13:33:05.288Z,12.44
2019-02-19T13:35:35.705Z,12.31
2019-02-19T13:38:06.128Z,12.42
2019-02-19T13:40:36.630Z,12.30
2019-02-19T13:43:07.046Z,12.32
2019-02-19T13:45:37.608Z,12.13
2019-02-19T13:48:08.013Z,12.10
2019-02-19T13:50:38.399Z,12.06
2019-02-19T13:53:19.420Z,12.03
2019-02-19T13:55:51.485Z,11.94
2019-02-19T13:58:22.017Z,12.00
2019-02-19T14:00:52.422Z,11.72
2019-02-19T14:03:22.897Z,11.66
2019-02-19T14:05:53.419Z,11.45
2019-02-19T14:08:23.846Z,11.45
2019-02-19T14:10:54.253Z,11.39
2019-02-19T14:13:24.810Z,11.43
2019-02-19T14:16:02.527Z,11.30
2019-02-19T14:18:50.045Z,11.32
2019-02-19T14:21:37.244Z,11.23
2019-02-19T14:24:27.624Z,11.16
2019-02-19T14:26:59.821Z,11.15
2019-02-19T14:29:48.369Z,11.17
2019-02-19T14:32:32.734Z,11.05
2019-02-19T14:35:04.789Z,10.95
2019-02-19T14:37:52.321Z,10.88
2019-02-19T14:40:30.548Z,10.90
2019-02-19T14:43:14.574Z,10.87
2019-02-19T14:46:03.246Z,10.90
2019-02-19T14:48:51.786Z,10.86
2019-02-19T14:51:26.821Z,10.84
2019-02-19T14:54:08.000Z,10.70
2019-02-19T14:56:42.734Z,10.65
2019-02-19T14:59:17.642Z,10.75
2019-02-19T15:01:58.657Z,10.78
2019-02-19T15:04:33.757Z,10.68
2019-02-19T15:07:22.082Z,10.76
2019-02-19T15:09:54.198Z,10.66
2019-02-19T15:12:28.897Z,10.59
2019-02-19T15:15:04.025Z,10.64
2019-02-19T15:17:45.010Z,10.72
2019-02-19T15:20:19.841Z,10.71
2019-02-19T15:23:08.742Z,10.70
2019-02-19T15:25:46.855Z,10.59
2019-02-19T15:28:37.049Z,10.58
2019-02-19T15:31:25.604Z,10.56
2019-02-19T15:33:57.648Z,10.46
2019-02-19T15:36:38.685Z,10.47
2019-02-19T15:39:26.896Z,10.46
2019-02-19T15:42:08.381Z,10.39
2019-02-19T15:44:52.276Z,10.43
2019-02-19T15:47:41.811Z,10.42
2019-02-19T15:50:16.841Z,10.30
2019-02-19T15:52:49.091Z,10.22
2019-02-19T15:55:40.563Z,10.18
2019-02-19T15:58:24.823Z,10.17
2019-02-19T16:01:12.942Z,10.12
2019-02-19T16:03:47.622Z,10.10
2019-02-19T16:06:19.661Z,10.05
2019-02-19T16:08:57.938Z,10.03
2019-02-19T16:11:30.004Z,9.95
2019-02-19T16:14:16.329Z,9.90
2019-02-19T16:16:41.720Z,9.94
2019-02-19T16:19:32.649Z,9.89
2019-02-19T16:22:16.895Z,9.90
2019-02-19T16:24:51.810Z,9.81
2019-02-19T16:27:26.597Z,9.85
2019-02-19T16:30:01.235Z,9.78
2019-02-19T16:32:34.875Z,9.68
2019-02-19T16:35:27.477Z,9.62
2019-02-19T16:38:06.611Z,9.60
2019-02-19T16:40:47.671Z,9.54
2019-02-19T16:43:19.774Z,9.56
2019-02-19T16:45:55.623Z,9.49
2019-02-19T16:48:27.665Z,9.44
2019-02-19T16:50:59.727Z,9.46
2019-02-19T16:53:37.854Z,9.44
2019-02-19T16:56:09.892Z,9.37
2019-02-19T16:58:51.205Z,9.37
2019-02-19T17:01:39.730Z,9.30
2019-02-19T17:04:17.867Z,9.30
2019-02-19T17:06:50.057Z,9.23
2019-02-19T17:09:28.145Z,9.18
2019-02-19T17:12:12.265Z,9.15
2019-02-19T17:14:47.400Z,9.02
2019-02-19T17:17:19.469Z,8.98
2019-02-19T17:19:55.341Z,8.99
2019-02-19T17:22:30.498Z,8.93
2019-02-19T17:25:02.556Z,8.93
2019-02-19T17:27:34.632Z,8.93
2019-02-19T17:30:25.950Z,8.94
2019-02-19T17:32:57.986Z,8.92
2019-02-19T17:35:41.861Z,8.88
2019-02-19T17:38:19.707Z,8.83
2019-02-19T17:41:00.947Z,8.86
2019-02-19T17:43:32.988Z,8.92
2019-02-19T17:46:05.036Z,8.82
2019-02-19T17:48:44.107Z,8.80
2019-02-19T17:51:21.960Z,8.80
2019-02-19T17:53:56.946Z,8.80
2019-02-19T17:56:31.956Z,8.75
2019-02-19T17:59:13.068Z,8.69
2019-02-19T18:02:01.299Z,8.63
2019-02-19T18:04:48.728Z,8.62
2019-02-19T18:07:26.680Z,8.63
2019-02-19T18:10:01.590Z,8.64
2019-02-19T18:12:50.943Z,8.70
2019-02-19T18:15:26.293Z,8.76
2019-02-19T18:17:58.367Z,8.76
2019-02-19T18:20:28.784Z,8.76
2019-02-19T18:22:59.305Z,8.79
2019-02-19T18:25:29.829Z,8.82
2019-02-19T18:28:00.271Z,8.84
2019-02-19T18:30:31.008Z,8.87
2019-02-19T18:33:01.413Z,8.88
2019-02-19T18:35:31.860Z,8.83
2019-02-19T18:38:02.292Z,8.80
2019-02-19T18:40:32.716Z,8.79
2019-02-19T18:43:03.200Z,8.79
2019-02-19T18:45:33.680Z,8.78
2019-02-19T18:48:04.113Z,8.87
2019-02-19T18:50:34.528Z,8.81
2019-02-19T18:53:04.937Z,8.79
2019-02-19T18:55:35.328Z,8.82
2019-02-19T18:58:05.814Z,8.78
2019-02-19T19:00:36.253Z,8.78
2019-02-19T19:03:06.721Z,8.80
2019-02-19T19:05:37.257Z,8.75
2019-02-19T19:08:07.671Z,8.78
2019-02-19T19:10:38.071Z,8.75
2019-02-19T19:13:08.562Z,8.80
2019-02-19T19:15:39.297Z,8.70
2019-02-19T19:18:09.726Z,8.70
2019-02-19T19:20:40.141Z,8.67
2019-02-19T19:23:10.581Z,8.56
2019-02-19T19:25:40.967Z,8.59
2019-02-19T19:28:12.329Z,8.58
2019-02-19T19:30:42.789Z,8.54
2019-02-19T19:33:13.211Z,8.43
2019-02-19T19:35:43.640Z,8.36
2019-02-19T19:38:14.033Z,8.29
2019-02-19T19:40:44.433Z,8.23
2019-02-19T19:43:14.821Z,8.26
2019-02-19T19:45:45.230Z,8.27
2019-02-19T19:48:15.621Z,8.30
2019-02-19T19:50:46.009Z,8.31
2019-02-19T19:53:16.413Z,8.33
